sensor_id;sensor_type;location;lat;lon;timestamp;pressure;altitude;pressure_sealevel;temperature;humidity
30073;BME280;16897;52.422;13.678;2022-11-13T00:03:28;102780.59;;;11.24;61.21
30073;BME280;16897;52.422;13.678;2022-11-13T00:07:49;102792.56;;;11.33;61.11
30073;BME280;16897;52.422;13.678;2022-11-13T00:12:09;102780.34;;;11.33;61.35
30073;BME280;16897;52.422;13.678;2022-11-13T00:16:30;102739.13;;;11.08;61.27
30073;BME280;16897;52.422;13.678;2022-11-13T00:20:50;102788.91;;;11.40;61.46
30073;BME280;16897;52.422;13.678;2022-11-13T00:25:10;102781.84;;;11.43;61.24
30073;BME280;16897;52.422;13.678;2022-11-13T00:29:30;102758.59;;;11.31;61.37
30073;BME280;16897;52.422;13.678;2022-11-13T00:33:51;102777.63;;;11.38;61.35
30073;BME280;16897;52.422;13.678;2022-11-13T00:38:12;102798.19;;;11.51;61.25
30073;BME280;16897;52.422;13.678;2022-11-13T00:42:32;102767.94;;;11.41;61.46
30073;BME280;16897;52.422;13.678;2022-11-13T00:46:53;102781.72;;;11.48;61.34
30073;BME280;16897;52.422;13.678;2022-11-13T00:51:13;102767.06;;;11.42;61.32
30073;BME280;16897;52.422;13.678;2022-11-13T00:55:34;102757.38;;;11.44;61.42
30073;BME280;16897;52.422;13.678;2022-11-13T00:59:55;102771.09;;;11.54;61.47
30073;BME280;16897;52.422;13.678;2022-11-13T01:04:15;102753.63;;;11.55;61.51
30073;BME280;16897;52.422;13.678;2022-11-13T01:08:36;102741.66;;;11.46;61.58
30073;BME280;16897;52.422;13.678;2022-11-13T01:12:56;102735.53;;;11.47;61.49
30073;BME280;16897;52.422;13.678;2022-11-13T01:17:17;102751.75;;;11.60;61.41
30073;BME280;16897;52.422;13.678;2022-11-13T01:21:37;102746.59;;;11.57;61.52
30073;BME280;16897;52.422;13.678;2022-11-13T01:26:17;102751.66;;;11.63;61.42
30073;BME280;16897;52.422;13.678;2022-11-13T01:30:38;102742.25;;;11.56;61.59
30073;BME280;16897;52.422;13.678;2022-11-13T01:34:59;102725.69;;;11.57;61.54
30073;BME280;16897;52.422;13.678;2022-11-13T01:39:19;102736.88;;;11.62;61.52
30073;BME280;16897;52.422;13.678;2022-11-13T01:43:39;102748.03;;;11.68;61.56
30073;BME280;16897;52.422;13.678;2022-11-13T01:48:00;102734.09;;;11.68;61.57
30073;BME280;16897;52.422;13.678;2022-11-13T01:52:36;102741.09;;;11.67;61.46
30073;BME280;16897;52.422;13.678;2022-11-13T01:56:58;102710.72;;;11.62;61.50
30073;BME280;16897;52.422;13.678;2022-11-13T02:01:19;102702.03;;;11.60;61.37
30073;BME280;16897;52.422;13.678;2022-11-13T02:05:40;102724.22;;;11.78;61.63
30073;BME280;16897;52.422;13.678;2022-11-13T02:10:00;102701.84;;;11.66;61.48
30073;BME280;16897;52.422;13.678;2022-11-13T02:14:24;102703.50;;;11.70;61.67
30073;BME280;16897;52.422;13.678;2022-11-13T02:18:45;102699.97;;;11.71;61.65
30073;BME280;16897;52.422;13.678;2022-11-13T02:23:27;102717.16;;;11.80;61.57
30073;BME280;16897;52.422;13.678;2022-11-13T02:27:49;102712.81;;;11.80;61.59
30073;BME280;16897;52.422;13.678;2022-11-13T02:32:10;102684.19;;;11.74;61.62
30073;BME280;16897;52.422;13.678;2022-11-13T02:36:31;102704.03;;;11.83;61.69
30073;BME280;16897;52.422;13.678;2022-11-13T02:40:51;102694.34;;;11.86;61.64
30073;BME280;16897;52.422;13.678;2022-11-13T02:45:12;102624.66;;;11.51;61.62
30073;BME280;16897;52.422;13.678;2022-11-13T02:49:32;102673.41;;;11.85;61.81
30073;BME280;16897;52.422;13.678;2022-11-13T02:53:53;102673.41;;;11.86;61.81
30073;BME280;16897;52.422;13.678;2022-11-13T02:58:14;102674.13;;;11.91;61.74
30073;BME280;16897;52.422;13.678;2022-11-13T03:02:35;102664.53;;;11.90;61.90
30073;BME280;16897;52.422;13.678;2022-11-13T03:06:55;102642.00;;;11.85;61.63
30073;BME280;16897;52.422;13.678;2022-11-13T03:11:15;102660.84;;;11.98;61.70
30073;BME280;16897;52.422;13.678;2022-11-13T03:15:36;102646.13;;;11.93;61.70
30073;BME280;16897;52.422;13.678;2022-11-13T03:19:56;102658.13;;;12.01;61.78
30073;BME280;16897;52.422;13.678;2022-11-13T03:24:17;102660.53;;;12.08;61.52
30073;BME280;16897;52.422;13.678;2022-11-13T03:28:38;102656.25;;;12.06;61.86
30073;BME280;16897;52.422;13.678;2022-11-13T03:32:58;102645.88;;;12.01;61.71
30073;BME280;16897;52.422;13.678;2022-11-13T03:37:18;102586.72;;;11.66;61.89
30073;BME280;16897;52.422;13.678;2022-11-13T03:41:39;102643.34;;;12.00;61.96
30073;BME280;16897;52.422;13.678;2022-11-13T03:45:59;102637.09;;;12.04;61.96
30073;BME280;16897;52.422;13.678;2022-11-13T03:50:19;102647.34;;;12.11;61.90
30073;BME280;16897;52.422;13.678;2022-11-13T03:54:40;102648.19;;;12.12;61.60
30073;BME280;16897;52.422;13.678;2022-11-13T03:59:00;102601.88;;;11.86;61.95
30073;BME280;16897;52.422;13.678;2022-11-13T04:03:21;102653.09;;;12.23;61.84
30073;BME280;16897;52.422;13.678;2022-11-13T04:07:42;102653.91;;;12.25;61.88
30073;BME280;16897;52.422;13.678;2022-11-13T04:12:02;102622.00;;;12.12;61.82
30073;BME280;16897;52.422;13.678;2022-11-13T04:16:23;102651.41;;;12.20;61.80
30073;BME280;16897;52.422;13.678;2022-11-13T04:20:43;102654.59;;;12.31;61.90
30073;BME280;16897;52.422;13.678;2022-11-13T04:25:05;102635.66;;;12.22;61.80
30073;BME280;16897;52.422;13.678;2022-11-13T04:29:26;102634.72;;;12.24;61.72
30073;BME280;16897;52.422;13.678;2022-11-13T04:33:46;102593.59;;;12.00;61.84
30073;BME280;16897;52.422;13.678;2022-11-13T04:38:07;102629.34;;;12.29;61.73
30073;BME280;16897;52.422;13.678;2022-11-13T04:42:27;102617.25;;;12.25;61.77
30073;BME280;16897;52.422;13.678;2022-11-13T04:47:07;102625.81;;;12.30;61.78
30073;BME280;16897;52.422;13.678;2022-11-13T04:51:28;102631.00;;;12.31;61.63
30073;BME280;16897;52.422;13.678;2022-11-13T04:55:50;102558.97;;;11.90;61.88
30073;BME280;16897;52.422;13.678;2022-11-13T05:00:11;102624.84;;;12.32;61.73
30073;BME280;16897;52.422;13.678;2022-11-13T05:04:31;102564.00;;;11.96;61.81
30073;BME280;16897;52.422;13.678;2022-11-13T05:08:52;102610.28;;;12.24;61.92
30073;BME280;16897;52.422;13.678;2022-11-13T05:13:12;102627.28;;;12.38;61.80
30073;BME280;16897;52.422;13.678;2022-11-13T05:17:32;102609.25;;;12.29;61.80
30073;BME280;16897;52.422;13.678;2022-11-13T05:21:53;102620.44;;;12.34;61.79
30073;BME280;16897;52.422;13.678;2022-11-13T05:26:14;102629.69;;;12.45;61.97
30073;BME280;16897;52.422;13.678;2022-11-13T05:30:34;102619.41;;;12.38;61.81
30073;BME280;16897;52.422;13.678;2022-11-13T05:34:55;102546.38;;;12.01;61.78
30073;BME280;16897;52.422;13.678;2022-11-13T05:39:15;102624.44;;;12.45;61.83
30073;BME280;16897;52.422;13.678;2022-11-13T05:43:37;102595.97;;;12.34;61.83
30073;BME280;16897;52.422;13.678;2022-11-13T05:47:58;102597.63;;;12.36;61.67
30073;BME280;16897;52.422;13.678;2022-11-13T05:52:18;102603.69;;;12.38;61.82
30073;BME280;16897;52.422;13.678;2022-11-13T05:56:39;102607.75;;;12.47;61.77
30073;BME280;16897;52.422;13.678;2022-11-13T06:01:27;102598.44;;;12.38;61.90
30073;BME280;16897;52.422;13.678;2022-11-13T06:05:49;102598.16;;;12.48;61.96
30073;BME280;16897;52.422;13.678;2022-11-13T06:10:09;102591.09;;;12.50;61.86
30073;BME280;16897;52.422;13.678;2022-11-13T06:14:31;102585.81;;;12.51;61.81
30073;BME280;16897;52.422;13.678;2022-11-13T06:18:56;102575.53;;;12.45;61.77
30073;BME280;16897;52.422;13.678;2022-11-13T06:23:17;102569.38;;;12.46;61.88
30073;BME280;16897;52.422;13.678;2022-11-13T06:27:37;102584.97;;;12.51;61.87
30073;BME280;16897;52.422;13.678;2022-11-13T06:31:57;102594.31;;;12.58;61.77
30073;BME280;16897;52.422;13.678;2022-11-13T06:36:24;102581.41;;;12.52;61.96
30073;BME280;16897;52.422;13.678;2022-11-13T06:40:45;102582.16;;;12.55;61.91
30073;BME280;16897;52.422;13.678;2022-11-13T06:45:06;102529.97;;;12.23;61.82
30073;BME280;16897;52.422;13.678;2022-11-13T06:49:27;102581.06;;;12.62;61.95
30073;BME280;16897;52.422;13.678;2022-11-13T06:53:47;102556.91;;;12.53;61.80
30073;BME280;16897;52.422;13.678;2022-11-13T06:58:08;102559.66;;;12.50;61.90
30073;BME280;16897;52.422;13.678;2022-11-13T07:02:28;102581.63;;;12.72;61.97
30073;BME280;16897;52.422;13.678;2022-11-13T07:06:48;102575.44;;;12.73;62.08
30073;BME280;16897;52.422;13.678;2022-11-13T07:11:12;102564.34;;;12.67;61.92
30073;BME280;16897;52.422;13.678;2022-11-13T07:15:37;102567.72;;;12.69;62.03
30073;BME280;16897;52.422;13.678;2022-11-13T07:20:06;102572.81;;;12.73;61.96
30073;BME280;16897;52.422;13.678;2022-11-13T07:24:27;102555.59;;;12.66;62.06
30073;BME280;16897;52.422;13.678;2022-11-13T07:28:48;102540.94;;;12.60;62.01
30073;BME280;16897;52.422;13.678;2022-11-13T07:33:09;102559.13;;;12.65;61.90
30073;BME280;16897;52.422;13.678;2022-11-13T07:37:29;102571.75;;;12.79;61.96
30073;BME280;16897;52.422;13.678;2022-11-13T07:41:50;102552.06;;;12.67;62.06
30073;BME280;16897;52.422;13.678;2022-11-13T07:46:10;102552.00;;;12.69;61.93
30073;BME280;16897;52.422;13.678;2022-11-13T07:50:35;102542.56;;;12.65;62.04
30073;BME280;16897;52.422;13.678;2022-11-13T07:54:56;102565.88;;;12.72;62.14
30073;BME280;16897;52.422;13.678;2022-11-13T07:59:16;102545.06;;;12.68;62.10
30073;BME280;16897;52.422;13.678;2022-11-13T08:03:37;102548.41;;;12.71;62.00
30073;BME280;16897;52.422;13.678;2022-11-13T08:07:57;102551.69;;;12.78;62.18
30073;BME280;16897;52.422;13.678;2022-11-13T08:12:18;102562.78;;;12.86;62.06
30073;BME280;16897;52.422;13.678;2022-11-13T08:16:38;102543.94;;;12.75;62.01
30073;BME280;16897;52.422;13.678;2022-11-13T08:21:01;102556.03;;;12.79;62.02
30073;BME280;16897;52.422;13.678;2022-11-13T08:25:22;102514.13;;;12.52;62.12
30073;BME280;16897;52.422;13.678;2022-11-13T08:29:43;102542.22;;;12.74;62.11
30073;BME280;16897;52.422;13.678;2022-11-13T08:34:04;102527.44;;;12.71;62.24
30073;BME280;16897;52.422;13.678;2022-11-13T08:38:24;102521.47;;;12.68;62.13
30073;BME280;16897;52.422;13.678;2022-11-13T08:42:45;102540.41;;;12.76;61.95
30073;BME280;16897;52.422;13.678;2022-11-13T08:47:05;102561.53;;;12.96;62.02
30073;BME280;16897;52.422;13.678;2022-11-13T08:51:27;102553.13;;;12.87;62.03
30073;BME280;16897;52.422;13.678;2022-11-13T08:55:48;102530.66;;;12.79;61.97
30073;BME280;16897;52.422;13.678;2022-11-13T09:00:10;102516.22;;;12.68;61.96
30073;BME280;16897;52.422;13.678;2022-11-13T09:04:30;102544.19;;;12.92;61.82
30073;BME280;16897;52.422;13.678;2022-11-13T09:08:50;102509.09;;;12.71;61.88
30073;BME280;16897;52.422;13.678;2022-11-13T09:13:11;102543.97;;;12.98;61.89
30073;BME280;16897;52.422;13.678;2022-11-13T09:17:32;102514.81;;;12.82;61.94
30073;BME280;16897;52.422;13.678;2022-11-13T09:21:52;102546.38;;;13.04;61.92
30073;BME280;16897;52.422;13.678;2022-11-13T09:26:13;102543.66;;;13.07;61.86
30073;BME280;16897;52.422;13.678;2022-11-13T09:30:36;102550.66;;;13.07;61.82
30073;BME280;16897;52.422;13.678;2022-11-13T09:34:56;102543.66;;;13.07;61.87
30073;BME280;16897;52.422;13.678;2022-11-13T09:39:17;102526.41;;;13.00;61.80
30073;BME280;16897;52.422;13.678;2022-11-13T09:43:50;102533.19;;;13.06;61.76
30073;BME280;16897;52.422;13.678;2022-11-13T09:52:55;102524.31;;;13.10;61.76
30073;BME280;16897;52.422;13.678;2022-11-13T09:57:40;102518.44;;;13.03;61.87
30073;BME280;16897;52.422;13.678;2022-11-13T10:02:17;102528.53;;;13.14;61.76
30073;BME280;16897;52.422;13.678;2022-11-13T10:06:57;102508.78;;;13.04;61.63
30073;BME280;16897;52.422;13.678;2022-11-13T10:16:31;102496.47;;;13.06;61.53
30073;BME280;16897;52.422;13.678;2022-11-13T10:21:19;102504.06;;;13.14;61.59
30073;BME280;16897;52.422;13.678;2022-11-13T10:25:41;102512.56;;;13.20;61.60
30073;BME280;16897;52.422;13.678;2022-11-13T10:30:11;102500.63;;;13.12;61.60
30073;BME280;16897;52.422;13.678;2022-11-13T10:34:32;102499.28;;;13.25;61.49
30073;BME280;16897;52.422;13.678;2022-11-13T10:39:01;102483.03;;;13.15;61.52
30073;BME280;16897;52.422;13.678;2022-11-13T10:43:24;102494.16;;;13.22;61.42
30073;BME280;16897;52.422;13.678;2022-11-13T10:47:50;102468.03;;;13.19;61.43
30073;BME280;16897;52.422;13.678;2022-11-13T10:52:19;102481.88;;;13.22;61.39
30073;BME280;16897;52.422;13.678;2022-11-13T10:56:40;102471.84;;;13.34;61.42
30073;BME280;16897;52.422;13.678;2022-11-13T11:01:01;102469.91;;;13.39;61.52
30073;BME280;16897;52.422;13.678;2022-11-13T11:05:24;102465.34;;;13.44;61.42
30073;BME280;16897;52.422;13.678;2022-11-13T11:09:46;102472.19;;;13.48;61.39
30073;BME280;16897;52.422;13.678;2022-11-13T11:14:30;102459.00;;;13.49;61.22
30073;BME280;16897;52.422;13.678;2022-11-13T11:18:58;102444.22;;;13.47;61.27
30073;BME280;16897;52.422;13.678;2022-11-13T11:23:51;102440.81;;;13.45;61.17
30073;BME280;16897;52.422;13.678;2022-11-13T11:28:52;102453.41;;;13.59;61.27
30073;BME280;16897;52.422;13.678;2022-11-13T11:33:24;102430.75;;;13.56;61.31
30073;BME280;16897;52.422;13.678;2022-11-13T11:38:09;102429.69;;;13.60;61.03
30073;BME280;16897;52.422;13.678;2022-11-13T11:47:14;102410.19;;;13.66;61.03
30073;BME280;16897;52.422;13.678;2022-11-13T12:07:17;102392.13;;;14.01;60.91
30073;BME280;16897;52.422;13.678;2022-11-13T12:11:51;102395.50;;;14.04;60.92
30073;BME280;16897;52.422;13.678;2022-11-13T12:16:36;102383.84;;;14.10;60.94
30073;BME280;16897;52.422;13.678;2022-11-13T12:25:53;102383.50;;;14.17;60.77
30073;BME280;16897;52.422;13.678;2022-11-13T12:30:21;102344.50;;;14.08;60.78
30073;BME280;16897;52.422;13.678;2022-11-13T12:34:51;102374.53;;;14.23;60.75
30073;BME280;16897;52.422;13.678;2022-11-13T12:39:27;102374.09;;;14.32;60.78
30073;BME280;16897;52.422;13.678;2022-11-13T12:48:44;102359.13;;;14.34;60.64
30073;BME280;16897;52.422;13.678;2022-11-13T12:53:09;102300.63;;;14.10;60.52
30073;BME280;16897;52.422;13.678;2022-11-13T12:57:31;102339.78;;;14.35;60.50
30073;BME280;16897;52.422;13.678;2022-11-13T13:02:01;102328.63;;;14.30;60.31
30073;BME280;16897;52.422;13.678;2022-11-13T13:11:46;102315.22;;;14.36;60.40
30073;BME280;16897;52.422;13.678;2022-11-13T13:16:09;102315.16;;;14.38;60.34
30073;BME280;16897;52.422;13.678;2022-11-13T13:20:40;102316.09;;;14.37;60.15
30073;BME280;16897;52.422;13.678;2022-11-13T13:25:24;102325.53;;;14.41;60.20
30073;BME280;16897;52.422;13.678;2022-11-13T13:29:45;102313.38;;;14.38;60.20
30073;BME280;16897;52.422;13.678;2022-11-13T13:39:35;102324.63;;;14.42;60.02
30073;BME280;16897;52.422;13.678;2022-11-13T13:49:04;102296.19;;;14.31;60.03
30073;BME280;16897;52.422;13.678;2022-11-13T13:53:32;102311.47;;;14.42;60.10
30073;BME280;16897;52.422;13.678;2022-11-13T13:57:53;102317.50;;;14.44;59.90
30073;BME280;16897;52.422;13.678;2022-11-13T14:02:18;102290.34;;;14.25;59.76
30073;BME280;16897;52.422;13.678;2022-11-13T14:06:57;102321.06;;;14.43;59.79
30073;BME280;16897;52.422;13.678;2022-11-13T14:11:23;102310.53;;;14.43;59.80
30073;BME280;16897;52.422;13.678;2022-11-13T14:15:48;102294.31;;;14.33;59.86
30073;BME280;16897;52.422;13.678;2022-11-13T14:20:12;102307.28;;;14.38;59.68
30073;BME280;16897;52.422;13.678;2022-11-13T14:24:53;102269.75;;;14.15;59.90
30073;BME280;16897;52.422;13.678;2022-11-13T14:29:24;102264.66;;;14.12;59.60
30073;BME280;16897;52.422;13.678;2022-11-13T14:33:48;102270.81;;;14.11;59.62
30073;BME280;16897;52.422;13.678;2022-11-13T14:38:25;102274.72;;;14.03;59.60
30073;BME280;16897;52.422;13.678;2022-11-13T14:42:54;102278.97;;;14.05;59.63
30073;BME280;16897;52.422;13.678;2022-11-13T14:47:27;102277.38;;;14.01;59.65
30073;BME280;16897;52.422;13.678;2022-11-13T14:51:57;102284.22;;;14.05;59.57
30073;BME280;16897;52.422;13.678;2022-11-13T14:56:17;102282.94;;;13.95;59.58
30073;BME280;16897;52.422;13.678;2022-11-13T15:00:38;102269.28;;;13.87;59.50
30073;BME280;16897;52.422;13.678;2022-11-13T15:04:58;102288.47;;;13.89;59.57
30073;BME280;16897;52.422;13.678;2022-11-13T15:09:19;102272.19;;;13.81;59.48
30073;BME280;16897;52.422;13.678;2022-11-13T15:13:40;102282.88;;;13.76;59.64
30073;BME280;16897;52.422;13.678;2022-11-13T15:18:00;102266.88;;;13.62;59.49
30073;BME280;16897;52.422;13.678;2022-11-13T15:22:22;102273.97;;;13.60;59.49
30073;BME280;16897;52.422;13.678;2022-11-13T15:26:42;102262.94;;;13.52;59.43
30073;BME280;16897;52.422;13.678;2022-11-13T15:31:42;102276.38;;;13.44;59.43
30073;BME280;16897;52.422;13.678;2022-11-13T15:36:03;102273.06;;;13.40;59.54
30073;BME280;16897;52.422;13.678;2022-11-13T15:40:24;102263.00;;;13.30;59.47
30073;BME280;16897;52.422;13.678;2022-11-13T15:44:44;102270.44;;;13.18;59.39
30073;BME280;16897;52.422;13.678;2022-11-13T15:49:05;102209.19;;;12.77;59.48
30073;BME280;16897;52.422;13.678;2022-11-13T15:53:26;102207.00;;;12.66;59.56
30073;BME280;16897;52.422;13.678;2022-11-13T15:57:47;102276.44;;;13.00;59.58
30073;BME280;16897;52.422;13.678;2022-11-13T16:02:09;102266.41;;;12.88;59.51
30073;BME280;16897;52.422;13.678;2022-11-13T16:06:29;102240.84;;;12.72;59.64
30073;BME280;16897;52.422;13.678;2022-11-13T16:10:50;102263.50;;;12.73;59.41
30073;BME280;16897;52.422;13.678;2022-11-13T16:15:14;102269.47;;;12.77;59.47
30073;BME280;16897;52.422;13.678;2022-11-13T16:19:37;102190.25;;;12.26;59.48
30073;BME280;16897;52.422;13.678;2022-11-13T16:23:58;102261.94;;;12.69;59.59
30073;BME280;16897;52.422;13.678;2022-11-13T16:28:19;102256.31;;;12.56;59.63
30073;BME280;16897;52.422;13.678;2022-11-13T16:32:39;102234.41;;;12.35;59.49
30073;BME280;16897;52.422;13.678;2022-11-13T16:36:59;102241.41;;;12.35;59.43
30073;BME280;16897;52.422;13.678;2022-11-13T16:41:20;102249.44;;;12.30;59.49
30073;BME280;16897;52.422;13.678;2022-11-13T16:45:43;102270.16;;;12.36;59.59
30073;BME280;16897;52.422;13.678;2022-11-13T16:50:50;102253.31;;;12.20;59.57
30073;BME280;16897;52.422;13.678;2022-11-13T16:54:45;102249.81;;;12.21;59.53
30073;BME280;16897;52.422;13.678;2022-11-13T16:59:08;102265.41;;;12.24;59.56
30073;BME280;16897;52.422;13.678;2022-11-13T17:03:29;102260.47;;;12.15;59.52
30073;BME280;16897;52.422;13.678;2022-11-13T17:07:49;102248.66;;;12.05;59.41
30073;BME280;16897;52.422;13.678;2022-11-13T17:12:16;102231.81;;;11.88;59.39
30073;BME280;16897;52.422;13.678;2022-11-13T17:16:36;102230.25;;;11.83;59.42
30073;BME280;16897;52.422;13.678;2022-11-13T17:20:57;102239.00;;;11.82;59.69
30073;BME280;16897;52.422;13.678;2022-11-13T17:25:19;102246.03;;;11.80;59.77
30073;BME280;16897;52.422;13.678;2022-11-13T17:29:43;102181.25;;;11.38;59.53
30073;BME280;16897;52.422;13.678;2022-11-13T17:34:03;102250.91;;;11.65;59.62
30073;BME280;16897;52.422;13.678;2022-11-13T17:38:24;102232.44;;;11.45;59.86
30073;BME280;16897;52.422;13.678;2022-11-13T17:42:45;102213.84;;;11.27;59.67
30073;BME280;16897;52.422;13.678;2022-11-13T17:47:07;102243.19;;;11.37;59.82
30073;BME280;16897;52.422;13.678;2022-11-13T17:51:31;102261.41;;;11.39;59.98
30073;BME280;16897;52.422;13.678;2022-11-13T17:55:54;102248.78;;;11.26;59.95
30073;BME280;16897;52.422;13.678;2022-11-13T18:00:18;102263.69;;;11.23;59.97
30073;BME280;16897;52.422;13.678;2022-11-13T18:04:39;102270.75;;;11.21;60.09
30073;BME280;16897;52.422;13.678;2022-11-13T18:08:59;102263.03;;;11.16;60.17
30073;BME280;16897;52.422;13.678;2022-11-13T18:13:20;102266.50;;;11.17;60.23
30073;BME280;16897;52.422;13.678;2022-11-13T18:17:40;102219.16;;;10.99;60.08
30073;BME280;16897;52.422;13.678;2022-11-13T18:22:03;102226.66;;;11.10;60.25
30073;BME280;16897;52.422;13.678;2022-11-13T18:26:24;102236.19;;;11.11;60.20
30073;BME280;16897;52.422;13.678;2022-11-13T18:30:48;102214.78;;;11.00;60.15
30073;BME280;16897;52.422;13.678;2022-11-13T18:35:08;102220.75;;;11.03;60.10
30073;BME280;16897;52.422;13.678;2022-11-13T18:39:28;102200.44;;;10.85;60.23
30073;BME280;16897;52.422;13.678;2022-11-13T18:43:50;102220.97;;;10.97;60.31
30073;BME280;16897;52.422;13.678;2022-11-13T18:48:10;102218.34;;;10.97;60.35
30073;BME280;16897;52.422;13.678;2022-11-13T18:52:31;102249.31;;;11.10;60.08
30073;BME280;16897;52.422;13.678;2022-11-13T18:56:51;102190.19;;;10.79;60.21
30073;BME280;16897;52.422;13.678;2022-11-13T19:01:22;102233.84;;;11.03;60.16
30073;BME280;16897;52.422;13.678;2022-11-13T19:05:45;102218.34;;;10.97;60.35
30073;BME280;16897;52.422;13.678;2022-11-13T19:10:06;102220.16;;;10.95;60.31
30073;BME280;16897;52.422;13.678;2022-11-13T19:14:27;102144.19;;;10.48;60.19
30073;BME280;16897;52.422;13.678;2022-11-13T19:18:55;102215.25;;;10.86;60.28
30073;BME280;16897;52.422;13.678;2022-11-13T19:23:16;102213.63;;;10.82;60.15
30073;BME280;16897;52.422;13.678;2022-11-13T19:27:36;102241.06;;;10.95;60.28
30073;BME280;16897;52.422;13.678;2022-11-13T19:31:58;102242.75;;;10.96;60.31
30073;BME280;16897;52.422;13.678;2022-11-13T19:36:18;102225.63;;;10.88;60.39
30073;BME280;16897;52.422;13.678;2022-11-13T19:40:41;102157.28;;;10.47;60.11
30073;BME280;16897;52.422;13.678;2022-11-13T19:45:03;102216.34;;;10.79;60.41
30073;BME280;16897;52.422;13.678;2022-11-13T19:49:24;102134.22;;;10.33;60.25
30073;BME280;16897;52.422;13.678;2022-11-13T19:53:44;102194.94;;;10.68;60.30
30073;BME280;16897;52.422;13.678;2022-11-13T19:58:09;102219.88;;;10.78;60.44
30073;BME280;16897;52.422;13.678;2022-11-13T20:02:29;102237.22;;;10.80;60.35
30073;BME280;16897;52.422;13.678;2022-11-13T20:06:50;102183.28;;;10.50;60.30
30073;BME280;16897;52.422;13.678;2022-11-13T20:11:11;102225.09;;;10.78;60.43
30073;BME280;16897;52.422;13.678;2022-11-13T20:15:34;102205.41;;;10.66;60.32
30073;BME280;16897;52.422;13.678;2022-11-13T20:19:55;102214.06;;;10.68;60.37
30073;BME280;16897;52.422;13.678;2022-11-13T20:24:15;102167.97;;;10.39;60.21
30073;BME280;16897;52.422;13.678;2022-11-13T20:28:36;102214.19;;;10.63;60.28
30073;BME280;16897;52.422;13.678;2022-11-13T20:32:56;102210.00;;;10.59;60.37
30073;BME280;16897;52.422;13.678;2022-11-13T20:37:19;102156.34;;;10.19;60.38
30073;BME280;16897;52.422;13.678;2022-11-13T20:41:40;102181.22;;;10.33;60.42
30073;BME280;16897;52.422;13.678;2022-11-13T20:46:05;102193.97;;;10.42;60.39
30073;BME280;16897;52.422;13.678;2022-11-13T20:50:26;102207.59;;;10.52;60.38
30073;BME280;16897;52.422;13.678;2022-11-13T20:54:46;102186.13;;;10.42;60.62
30073;BME280;16897;52.422;13.678;2022-11-13T20:59:07;102177.63;;;10.37;60.33
30073;BME280;16897;52.422;13.678;2022-11-13T21:03:27;102101.63;;;9.88;60.22
30073;BME280;16897;52.422;13.678;2022-11-13T21:07:48;102180.22;;;10.37;60.48
30073;BME280;16897;52.422;13.678;2022-11-13T21:12:08;102184.41;;;10.43;60.25
30073;BME280;16897;52.422;13.678;2022-11-13T21:16:29;102176.09;;;10.30;60.47
30073;BME280;16897;52.422;13.678;2022-11-13T21:20:51;102181.22;;;10.33;60.59
30073;BME280;16897;52.422;13.678;2022-11-13T21:25:11;102177.69;;;10.34;60.53
30073;BME280;16897;52.422;13.678;2022-11-13T21:29:31;102173.41;;;10.31;60.44
30073;BME280;16897;52.422;13.678;2022-11-13T21:33:52;102130.56;;;10.09;60.33
30073;BME280;16897;52.422;13.678;2022-11-13T21:38:14;102152.78;;;10.22;60.51
30073;BME280;16897;52.422;13.678;2022-11-13T21:42:34;102123.66;;;10.08;60.44
30073;BME280;16897;52.422;13.678;2022-11-13T21:46:55;102168.34;;;10.25;60.47
30073;BME280;16897;52.422;13.678;2022-11-13T21:51:15;102146.81;;;10.18;60.59
30073;BME280;16897;52.422;13.678;2022-11-13T21:55:36;102120.53;;;9.96;60.21
30073;BME280;16897;52.422;13.678;2022-11-13T21:59:56;102170.97;;;10.25;60.54
30073;BME280;16897;52.422;13.678;2022-11-13T22:04:16;102141.84;;;10.09;60.41
30073;BME280;16897;52.422;13.678;2022-11-13T22:08:37;102146.22;;;10.09;60.52
30073;BME280;16897;52.422;13.678;2022-11-13T22:12:57;102161.56;;;10.19;60.78
30073;BME280;16897;52.422;13.678;2022-11-13T22:17:17;102134.00;;;10.11;60.58
30073;BME280;16897;52.422;13.678;2022-11-13T22:21:38;102128.16;;;10.03;60.56
30073;BME280;16897;52.422;13.678;2022-11-13T22:26:05;102139.31;;;10.08;60.44
30073;BME280;16897;52.422;13.678;2022-11-13T22:30:26;102143.59;;;10.10;60.57
30073;BME280;16897;52.422;13.678;2022-11-13T22:34:46;102129.75;;;10.07;60.65
30073;BME280;16897;52.422;13.678;2022-11-13T22:39:06;102126.38;;;10.03;60.74
30073;BME280;16897;52.422;13.678;2022-11-13T22:43:34;102120.13;;;10.09;60.70
30073;BME280;16897;52.422;13.678;2022-11-13T22:47:55;102093.72;;;9.91;60.84
30073;BME280;16897;52.422;13.678;2022-11-13T22:52:16;102077.28;;;9.88;60.81
30073;BME280;16897;52.422;13.678;2022-11-13T22:56:38;102104.59;;;10.04;60.83
30073;BME280;16897;52.422;13.678;2022-11-13T23:01:21;102101.03;;;10.07;60.78
30073;BME280;16897;52.422;13.678;2022-11-13T23:05:42;102061.81;;;9.82;60.88
30073;BME280;16897;52.422;13.678;2022-11-13T23:10:03;102089.75;;;10.06;60.83
30073;BME280;16897;52.422;13.678;2022-11-13T23:14:23;102094.13;;;10.06;60.90
30073;BME280;16897;52.422;13.678;2022-11-13T23:18:44;102058.16;;;9.87;60.84
30073;BME280;16897;52.422;13.678;2022-11-13T23:23:05;102070.16;;;9.93;60.95
30073;BME280;16897;52.422;13.678;2022-11-13T23:27:26;102082.78;;;10.07;60.99
30073;BME280;16897;52.422;13.678;2022-11-13T23:31:47;102060.34;;;10.01;61.04
30073;BME280;16897;52.422;13.678;2022-11-13T23:36:10;102050.19;;;9.92;60.96